Time;durP1;ratioP1;P1;durP2;ratioP2;P2;SDS_P1;SDS_P2;PMS_P1;PMS_P2;Temp;Humidity;BMP_temperature;BMP_pressure;BME280_temperature;BME280_humidity;BME280_pressure;Samples;Min_cycle;Max_cycle;Signal;HPM_P1;HPM_P2
2022/03/25 00:01:29;;;;;;;29.10;18.63;;;10.00;99.90;;;;;;4996081;28;20042;-63
2022/03/25 00:03:57;;;;;;;27.10;18.17;;;9.80;99.90;;;;;;4994146;28;20037;-63
2022/03/25 00:06:23;;;;;;;28.85;16.98;;;9.60;99.90;;;;;;4994264;28;20124;-64
2022/03/25 00:08:49;;;;;;;35.60;22.17;;;9.40;99.90;;;;;;4995952;28;20034;-64
2022/03/25 00:11:15;;;;;;;31.27;20.48;;;9.40;99.90;;;;;;4995763;28;20300;-63
2022/03/25 00:13:41;;;;;;;33.25;22.77;;;9.30;99.90;;;;;;4995815;28;20022;-64
2022/03/25 00:16:07;;;;;;;25.85;17.88;;;9.20;99.90;;;;;;4993978;28;20026;-64
2022/03/25 00:18:33;;;;;;;24.77;16.52;;;9.30;99.90;;;;;;4991706;28;20030;-64
2022/03/25 00:21:00;;;;;;;20.02;14.27;;;9.20;99.90;;;;;;4997749;28;20037;-64
2022/03/25 00:23:26;;;;;;;21.90;15.18;;;9.00;99.90;;;;;;4995483;28;20037;-64
2022/03/25 00:25:52;;;;;;;16.45;12.13;;;8.90;99.90;;;;;;4995763;28;20034;-64
2022/03/25 00:28:20;;;;;;;29.02;20.73;;;8.80;99.90;;;;;;4995854;28;20032;-63
2022/03/25 00:30:46;;;;;;;30.42;20.40;;;8.80;99.90;;;;;;4992165;28;20515;-64
2022/03/25 00:33:12;;;;;;;15.48;11.45;;;8.60;99.90;;;;;;4995377;28;20125;-64
2022/03/25 00:35:40;;;;;;;20.40;14.02;;;8.30;99.90;;;;;;4993465;28;20481;-63
2022/03/25 00:38:06;;;;;;;13.05;10.10;;;8.10;99.90;;;;;;4995149;28;20434;-64
2022/03/25 00:40:31;;;;;;;37.65;21.48;;;8.10;99.90;;;;;;4995708;28;20033;-63
2022/03/25 00:42:58;;;;;;;28.77;18.13;;;8.10;99.90;;;;;;4993499;28;20042;-64
2022/03/25 00:45:24;;;;;;;14.07;10.80;;;8.10;99.90;;;;;;4993181;28;20038;-64
2022/03/25 00:47:49;;;;;;;13.52;10.52;;;8.00;99.90;;;;;;4995460;28;20034;-64
2022/03/25 00:50:16;;;;;;;18.40;14.88;;;7.80;99.90;;;;;;4995055;28;20061;-64
2022/03/25 00:52:42;;;;;;;10.35;9.32;;;7.80;99.90;;;;;;4995003;28;20042;-64
2022/03/25 00:55:08;;;;;;;11.70;9.35;;;7.70;99.90;;;;;;4993415;28;20406;-63
2022/03/25 00:57:34;;;;;;;12.30;10.07;;;7.60;99.90;;;;;;4991017;28;20026;-64
2022/03/25 01:00:00;;;;;;;16.65;12.38;;;7.70;99.90;;;;;;4997185;28;20022;-64
2022/03/25 01:02:26;;;;;;;13.85;12.30;;;7.90;99.90;;;;;;4994492;28;20061;-64
2022/03/25 01:04:52;;;;;;;16.13;11.30;;;8.00;99.90;;;;;;4994927;28;20037;-64
2022/03/25 01:07:17;;;;;;;18.10;12.25;;;7.90;99.90;;;;;;4994661;28;20030;-63
2022/03/25 01:09:43;;;;;;;17.05;12.48;;;7.70;99.90;;;;;;4991072;28;20034;-63
2022/03/25 01:12:10;;;;;;;15.52;11.20;;;7.60;99.90;;;;;;4995824;28;20530;-64
2022/03/25 01:14:36;;;;;;;17.33;11.77;;;7.50;99.90;;;;;;4993931;28;20030;-64
2022/03/25 01:17:02;;;;;;;17.05;12.38;;;7.40;99.90;;;;;;4994783;28;20038;-64
2022/03/25 01:19:28;;;;;;;12.98;10.65;;;7.50;99.90;;;;;;4994676;28;20499;-64
2022/03/25 01:21:55;;;;;;;13.80;10.93;;;7.80;99.90;;;;;;4992351;28;20077;-64
2022/03/25 01:24:21;;;;;;;14.15;10.70;;;7.90;99.90;;;;;;4993338;28;20058;-64
2022/03/25 01:26:47;;;;;;;11.90;9.88;;;7.80;99.90;;;;;;4994283;28;20084;-64
2022/03/25 01:29:13;;;;;;;13.93;9.77;;;7.40;99.90;;;;;;4994687;28;20110;-64
2022/03/25 01:31:39;;;;;;;10.48;9.43;;;7.30;99.90;;;;;;4994944;28;20066;-64
2022/03/25 01:34:05;;;;;;;11.10;10.00;;;7.10;99.90;;;;;;4992336;28;20088;-64
2022/03/25 01:36:31;;;;;;;13.25;9.60;;;6.90;99.90;;;;;;4990928;28;20567;-64
2022/03/25 01:39:01;;;;;;;11.65;10.43;;;6.90;99.90;;;;;;4996701;28;20419;-64
2022/03/25 01:41:27;;;;;;;15.05;12.57;;;6.80;99.90;;;;;;4994777;28;20049;-64
2022/03/25 01:43:55;;;;;;;10.18;9.10;;;6.80;99.90;;;;;;4994351;28;20038;-63
2022/03/25 01:46:21;;;;;;;11.15;9.95;;;6.60;99.90;;;;;;4994416;28;20033;-64
2022/03/25 01:48:49;;;;;;;13.68;11.02;;;6.50;99.90;;;;;;4991020;28;20050;-64
2022/03/25 01:51:21;;;;;;;18.55;13.55;;;6.50;99.90;;;;;;4993543;28;20066;-64
2022/03/25 01:53:47;;;;;;;12.70;9.95;;;6.50;99.90;;;;;;4994240;28;20398;-64
2022/03/25 01:56:20;;;;;;;11.73;9.75;;;6.50;99.90;;;;;;4994422;28;20109;-64
2022/03/25 01:58:45;;;;;;;12.00;9.95;;;6.30;99.90;;;;;;4994278;28;20030;-63
2022/03/25 02:01:11;;;;;;;11.15;9.77;;;6.20;99.90;;;;;;4994708;28;20037;-63
2022/03/25 02:03:37;;;;;;;19.10;14.93;;;6.10;99.90;;;;;;4988802;28;20053;-63
2022/03/25 02:06:04;;;;;;;12.57;10.63;;;6.20;99.90;;;;;;4996254;28;20492;-63
2022/03/25 02:08:30;;;;;;;19.35;15.30;;;6.10;99.90;;;;;;4994135;28;20399;-63
2022/03/25 02:10:57;;;;;;;18.13;15.38;;;6.20;99.90;;;;;;4994319;28;20030;-63
2022/03/25 02:13:23;;;;;;;12.82;10.20;;;6.30;99.90;;;;;;4992863;28;20026;-63
2022/03/25 02:15:49;;;;;;;11.20;9.93;;;6.20;99.90;;;;;;4993376;28;20031;-63
2022/03/25 02:18:18;;;;;;;14.57;11.70;;;6.30;99.90;;;;;;4998049;28;20471;-63
2022/03/25 02:20:45;;;;;;;13.40;10.45;;;6.20;99.90;;;;;;4999097;28;20030;-63
2022/03/25 02:23:12;;;;;;;11.50;9.65;;;6.40;99.90;;;;;;4997863;28;20443;-63
2022/03/25 02:25:38;;;;;;;11.35;9.93;;;6.30;99.90;;;;;;4997748;28;20046;-63
2022/03/25 02:28:04;;;;;;;10.88;9.73;;;6.20;99.90;;;;;;4996908;28;20033;-63
2022/03/25 02:30:31;;;;;;;11.18;9.52;;;6.70;99.90;;;;;;4994020;28;20042;-63
2022/03/25 02:33:00;;;;;;;11.20;10.00;;;6.60;99.90;;;;;;4998392;28;20405;-63
2022/03/25 02:35:58;;;;;;;11.27;10.10;;;6.80;99.90;;;;;;4998073;28;20038;-63
2022/03/25 02:38:24;;;;;;;12.48;9.57;;;6.40;99.90;;;;;;4954060;29;20046;-63
2022/03/25 02:40:51;;;;;;;12.70;10.10;;;6.20;99.90;;;;;;4937769;29;20034;-62
2022/03/25 02:43:17;;;;;;;12.98;10.65;;;6.20;99.90;;;;;;4953585;29;20047;-63
2022/03/25 02:45:43;;;;;;;12.95;10.02;;;6.40;99.90;;;;;;4953534;29;20038;-64
2022/03/25 02:48:09;;;;;;;10.73;9.60;;;6.50;99.90;;;;;;4938634;29;20032;-63
2022/03/25 02:50:36;;;;;;;12.70;9.30;;;6.40;99.90;;;;;;4953565;29;20078;-63
2022/03/25 02:53:02;;;;;;;10.50;9.40;;;6.70;99.90;;;;;;4946962;29;20024;-64
2022/03/25 02:55:28;;;;;;;9.90;8.90;;;6.80;99.90;;;;;;4942953;29;20043;-63
2022/03/25 02:57:55;;;;;;;13.68;9.43;;;6.90;99.90;;;;;;4940344;29;20099;-63
2022/03/25 03:00:21;;;;;;;12.20;9.75;;;6.60;99.90;;;;;;4938033;29;20058;-63
2022/03/25 03:02:48;;;;;;;11.43;10.13;;;6.50;99.90;;;;;;4941078;29;20024;-63
2022/03/25 03:05:17;;;;;;;11.68;10.48;;;6.20;99.90;;;;;;4942579;29;20036;-63
2022/03/25 03:07:46;;;;;;;11.18;10.07;;;6.00;99.90;;;;;;4942584;28;20060;-63
2022/03/25 03:10:13;;;;;;;11.23;10.05;;;5.90;99.90;;;;;;4942176;29;20125;-63
2022/03/25 03:12:39;;;;;;;11.35;10.23;;;5.90;99.90;;;;;;4938221;29;20028;-63
2022/03/25 03:15:06;;;;;;;12.43;11.18;;;5.80;99.90;;;;;;5004341;28;20104;-63
2022/03/25 03:17:32;;;;;;;13.07;10.30;;;5.80;99.90;;;;;;4997387;28;20030;-63
2022/03/25 03:20:00;;;;;;;11.13;10.10;;;6.00;99.90;;;;;;4996847;28;20493;-63
2022/03/25 03:22:25;;;;;;;12.15;10.25;;;6.30;99.90;;;;;;4995589;28;20436;-63
2022/03/25 03:24:51;;;;;;;11.55;9.68;;;6.10;99.90;;;;;;4994317;28;20120;-65
2022/03/25 03:27:17;;;;;;;9.98;8.95;;;6.10;99.90;;;;;;4996239;28;20030;-63
2022/03/25 03:29:43;;;;;;;12.10;9.30;;;6.20;99.90;;;;;;4997551;28;20050;-63
2022/03/25 03:32:09;;;;;;;11.25;9.15;;;6.30;99.90;;;;;;4995171;28;20053;-63
2022/03/25 03:34:35;;;;;;;11.35;8.65;;;6.60;99.90;;;;;;4996460;28;20402;-63
2022/03/25 03:37:01;;;;;;;11.10;8.77;;;6.70;99.90;;;;;;4995608;28;20025;-64
2022/03/25 03:39:27;;;;;;;11.77;9.20;;;7.00;99.90;;;;;;4993804;28;20118;-63
2022/03/25 03:41:53;;;;;;;11.10;8.50;;;6.80;99.90;;;;;;4996778;28;20046;-64
2022/03/25 03:44:19;;;;;;;12.02;8.80;;;6.80;99.90;;;;;;4994740;28;20045;-64
2022/03/25 03:46:44;;;;;;;11.60;8.50;;;6.90;99.90;;;;;;4995400;28;20114;-63
2022/03/25 03:49:10;;;;;;;13.10;8.75;;;6.80;99.90;;;;;;4994720;28;20079;-64
2022/03/25 03:51:36;;;;;;;10.18;9.13;;;6.90;99.90;;;;;;4992002;28;20408;-63
2022/03/25 03:54:05;;;;;;;13.68;9.60;;;6.90;99.90;;;;;;4998224;28;20049;-63
2022/03/25 03:56:31;;;;;;;17.13;10.80;;;6.50;99.90;;;;;;4996036;28;20168;-63
2022/03/25 03:58:56;;;;;;;14.05;10.52;;;6.10;99.90;;;;;;4995758;28;20121;-63
2022/03/25 04:01:22;;;;;;;13.93;10.48;;;5.90;99.90;;;;;;4994957;28;20033;-63
2022/03/25 04:03:48;;;;;;;11.23;10.10;;;5.60;99.90;;;;;;4991622;28;20018;-63
2022/03/25 04:06:14;;;;;;;11.02;9.82;;;5.50;99.90;;;;;;4994899;28;20391;-63
2022/03/25 04:08:40;;;;;;;12.43;10.20;;;5.50;99.90;;;;;;4996625;28;20035;-63
2022/03/25 04:11:05;;;;;;;11.77;10.57;;;5.20;99.90;;;;;;4996901;28;20081;-63
2022/03/25 04:13:31;;;;;;;10.63;9.52;;;5.30;99.90;;;;;;4995584;28;20075;-63
2022/03/25 04:15:57;;;;;;;10.90;9.80;;;5.30;99.90;;;;;;4993606;28;20026;-63
2022/03/25 04:18:23;;;;;;;11.40;10.30;;;5.20;99.90;;;;;;4994237;28;20042;-63
2022/03/25 04:20:50;;;;;;;11.75;9.90;;;5.10;99.90;;;;;;4996468;28;20037;-63
2022/03/25 04:23:16;;;;;;;12.68;10.10;;;5.00;99.90;;;;;;4995725;28;20541;-63
2022/03/25 04:25:42;;;;;;;11.43;10.23;;;5.10;99.90;;;;;;4996110;28;20041;-63
2022/03/25 04:28:08;;;;;;;11.32;10.18;;;5.10;99.90;;;;;;4993241;28;20022;-63
2022/03/25 04:30:38;;;;;;;12.70;10.18;;;5.20;99.90;;;;;;4991665;28;20034;-63
2022/03/25 04:33:04;;;;;;;11.13;10.07;;;5.10;99.90;;;;;;4997516;28;20109;-63
2022/03/25 04:35:32;;;;;;;13.55;9.82;;;5.20;99.90;;;;;;4995819;28;20426;-63
2022/03/25 04:37:59;;;;;;;12.00;9.75;;;5.10;99.90;;;;;;4994567;28;20491;-63
2022/03/25 04:40:26;;;;;;;11.30;10.15;;;5.10;99.90;;;;;;4993914;28;20072;-63
2022/03/25 04:42:54;;;;;;;11.20;10.10;;;5.10;99.90;;;;;;4992566;28;20058;-63
2022/03/25 04:45:21;;;;;;;13.07;10.82;;;4.90;99.90;;;;;;4994171;28;20092;-68
2022/03/25 04:47:46;;;;;;;12.05;10.18;;;5.00;99.90;;;;;;4996654;28;20060;-67
2022/03/25 04:50:13;;;;;;;11.93;10.70;;;4.80;99.90;;;;;;4993676;28;20499;-67
2022/03/25 04:52:39;;;;;;;11.45;10.23;;;4.70;99.90;;;;;;4995260;28;20101;-67
2022/03/25 04:55:05;;;;;;;12.05;10.40;;;4.80;99.90;;;;;;4994049;28;20036;-67
2022/03/25 04:57:31;;;;;;;13.32;11.95;;;4.80;99.90;;;;;;4991364;28;20043;-67
2022/03/25 04:59:57;;;;;;;14.05;10.93;;;4.70;99.90;;;;;;4997122;28;20038;-67
2022/03/25 05:02:23;;;;;;;13.85;11.23;;;4.60;99.90;;;;;;4995014;28;20030;-68
2022/03/25 05:04:49;;;;;;;12.05;10.85;;;4.40;99.90;;;;;;4995034;28;20038;-67
2022/03/25 05:07:16;;;;;;;13.82;10.50;;;4.50;99.90;;;;;;4993342;28;20018;-67
2022/03/25 05:09:42;;;;;;;13.98;11.57;;;4.50;99.90;;;;;;4990689;28;20113;-67
2022/03/25 05:12:08;;;;;;;13.38;11.50;;;4.40;99.90;;;;;;4996350;28;20133;-68
2022/03/25 05:14:34;;;;;;;13.32;11.10;;;4.40;99.90;;;;;;4994562;28;20055;-67
2022/03/25 05:17:00;;;;;;;14.23;11.15;;;4.40;99.90;;;;;;4995117;28;20030;-67
2022/03/25 05:19:26;;;;;;;12.77;11.10;;;4.30;99.90;;;;;;4993133;28;20041;-67
2022/03/25 05:21:52;;;;;;;13.07;11.80;;;4.30;99.90;;;;;;4992216;28;20041;-67
2022/03/25 05:24:18;;;;;;;12.75;11.57;;;4.20;99.90;;;;;;4994126;28;20085;-67
2022/03/25 05:26:44;;;;;;;14.77;11.02;;;4.20;99.90;;;;;;4995229;28;20475;-68
2022/03/25 05:29:10;;;;;;;15.32;12.30;;;4.10;99.90;;;;;;4993198;28;20038;-67
2022/03/25 05:31:37;;;;;;;13.55;11.82;;;4.10;99.90;;;;;;4994611;28;20038;-67
2022/03/25 05:34:06;;;;;;;12.70;11.40;;;4.10;99.90;;;;;;4993603;28;20030;-67
2022/03/25 05:36:35;;;;;;;13.25;11.77;;;4.10;99.90;;;;;;4991040;28;20030;-67
2022/03/25 05:39:02;;;;;;;12.95;11.57;;;4.10;99.90;;;;;;4996646;28;20026;-66
2022/03/25 05:41:29;;;;;;;12.60;11.30;;;4.10;99.90;;;;;;4993902;28;20085;-66
2022/03/25 05:43:55;;;;;;;16.23;12.18;;;4.10;99.90;;;;;;4994211;28;20026;-66
2022/03/25 05:46:21;;;;;;;13.57;11.90;;;4.10;99.90;;;;;;4993065;28;20032;-66
2022/03/25 05:48:47;;;;;;;14.05;11.57;;;4.00;99.90;;;;;;4991510;28;20040;-67
2022/03/25 05:51:14;;;;;;;14.10;11.57;;;4.10;99.90;;;;;;4999015;28;20034;-66
2022/03/25 05:53:43;;;;;;;17.15;12.48;;;4.00;99.90;;;;;;4998944;28;20026;-67
2022/03/25 05:56:10;;;;;;;16.80;11.90;;;4.00;99.90;;;;;;4997028;28;20104;-66
2022/03/25 05:58:36;;;;;;;14.45;11.65;;;4.00;99.90;;;;;;4997036;28;20065;-66
2022/03/25 06:01:03;;;;;;;15.77;11.90;;;4.00;99.90;;;;;;4996895;28;20068;-66
2022/03/25 06:03:31;;;;;;;13.65;11.80;;;4.00;99.90;;;;;;4995359;28;20022;-66
2022/03/25 06:05:56;;;;;;;17.38;12.82;;;4.10;99.90;;;;;;5000233;28;20038;-66
2022/03/25 06:08:23;;;;;;;21.92;19.35;;;4.10;99.90;;;;;;4995189;28;20113;-66
2022/03/25 06:10:50;;;;;;;15.82;12.43;;;4.30;99.90;;;;;;4997943;28;20380;-66
2022/03/25 06:13:16;;;;;;;18.23;15.40;;;4.40;99.90;;;;;;4998057;28;20034;-66
2022/03/25 06:15:42;;;;;;;16.77;15.00;;;4.50;99.90;;;;;;4993927;28;20033;-66
2022/03/25 06:18:08;;;;;;;18.05;11.77;;;5.00;99.90;;;;;;4998560;28;20026;-66
2022/03/25 06:20:34;;;;;;;15.20;11.80;;;5.00;99.90;;;;;;4998156;28;20117;-66
2022/03/25 06:23:00;;;;;;;14.40;11.65;;;5.20;99.90;;;;;;4997582;28;20031;-67
2022/03/25 06:25:26;;;;;;;13.18;11.88;;;5.50;99.90;;;;;;4996147;28;20173;-67
2022/03/25 06:27:54;;;;;;;12.30;11.02;;;5.60;99.90;;;;;;4995023;28;20199;-67
2022/03/25 06:30:22;;;;;;;13.45;12.00;;;6.20;99.90;;;;;;4997041;28;20035;-67
2022/03/25 06:32:48;;;;;;;16.40;14.70;;;6.60;99.90;;;;;;4999282;28;20030;-67
2022/03/25 06:35:15;;;;;;;12.10;10.60;;;7.10;99.90;;;;;;4997395;28;20041;-67
2022/03/25 06:37:41;;;;;;;12.07;10.40;;;6.70;99.90;;;;;;4995133;28;20500;-67
2022/03/25 06:40:08;;;;;;;14.40;11.27;;;6.40;99.90;;;;;;4994764;28;20443;-67
2022/03/25 06:42:38;;;;;;;12.57;10.38;;;6.30;99.90;;;;;;4993257;28;20042;-67
2022/03/25 06:45:06;;;;;;;11.25;8.85;;;6.50;99.90;;;;;;4999409;28;20058;-68
2022/03/25 06:47:32;;;;;;;14.05;10.10;;;6.50;99.90;;;;;;4996035;28;20033;-67
2022/03/25 06:49:58;;;;;;;12.00;9.00;;;6.60;99.90;;;;;;4997216;28;20038;-68
2022/03/25 06:52:25;;;;;;;12.77;9.90;;;6.70;99.90;;;;;;4997297;28;20030;-67
2022/03/25 06:54:51;;;;;;;13.57;9.70;;;6.70;99.90;;;;;;4994218;28;20032;-67
2022/03/25 06:57:17;;;;;;;11.35;9.70;;;6.80;99.90;;;;;;4996876;28;20033;-68
2022/03/25 06:59:43;;;;;;;12.60;9.90;;;6.90;99.90;;;;;;4998120;28;20030;-67
2022/03/25 07:02:10;;;;;;;10.60;9.50;;;6.90;99.90;;;;;;4996938;28;20134;-68
2022/03/25 07:04:37;;;;;;;13.70;11.13;;;6.90;99.90;;;;;;4995307;28;20026;-67
2022/03/25 07:07:04;;;;;;;11.85;9.15;;;6.90;99.90;;;;;;4995362;28;20037;-67
2022/03/25 07:09:31;;;;;;;11.23;8.65;;;6.90;99.90;;;;;;4993916;28;20034;-67
2022/03/25 07:11:57;;;;;;;10.55;8.65;;;7.20;99.90;;;;;;4998758;28;20096;-66
2022/03/25 07:14:23;;;;;;;10.43;7.82;;;7.30;99.90;;;;;;4997829;28;20491;-66
2022/03/25 07:16:49;;;;;;;11.02;8.18;;;7.60;99.90;;;;;;4995365;28;20031;-66
2022/03/25 07:19:15;;;;;;;9.27;7.78;;;7.80;99.90;;;;;;4995921;28;20511;-68
2022/03/25 07:21:40;;;;;;;9.68;7.97;;;7.90;99.90;;;;;;4992288;28;20050;-68
2022/03/25 07:24:06;;;;;;;9.27;7.97;;;8.00;99.90;;;;;;4998763;28;20040;-67
2022/03/25 07:26:32;;;;;;;9.55;8.32;;;8.10;99.90;;;;;;4995153;28;20041;-67
2022/03/25 07:28:58;;;;;;;10.48;7.72;;;8.10;99.90;;;;;;4996758;28;20071;-67
2022/03/25 07:31:28;;;;;;;9.77;8.00;;;8.20;99.90;;;;;;4996322;28;20448;-67
2022/03/25 07:33:57;;;;;;;9.38;7.47;;;8.20;99.90;;;;;;4993847;28;20395;-67
2022/03/25 07:36:24;;;;;;;8.85;7.95;;;8.30;99.90;;;;;;4994377;28;20042;-68
2022/03/25 07:38:50;;;;;;;10.32;7.53;;;8.50;99.90;;;;;;4998030;28;20061;-67
2022/03/25 07:41:16;;;;;;;8.63;7.40;;;8.50;99.90;;;;;;4996047;28;20062;-68
2022/03/25 07:43:42;;;;;;;8.65;7.45;;;8.60;99.90;;;;;;4994885;28;20054;-67
2022/03/25 07:46:08;;;;;;;8.88;7.30;;;8.60;99.90;;;;;;4994307;28;20514;-69
2022/03/25 07:48:34;;;;;;;10.68;7.50;;;8.70;99.90;;;;;;4992621;28;20045;-68
2022/03/25 07:51:00;;;;;;;8.63;7.07;;;8.90;99.90;;;;;;4996887;28;20488;-68
2022/03/25 07:53:25;;;;;;;10.75;7.35;;;8.90;99.90;;;;;;4995296;28;20500;-68
2022/03/25 07:55:51;;;;;;;9.23;7.45;;;9.00;99.90;;;;;;4994012;28;20034;-68
2022/03/25 07:58:21;;;;;;;12.07;7.35;;;9.20;99.90;;;;;;4996424;28;20018;-68
2022/03/25 08:00:51;;;;;;;10.98;6.90;;;9.40;99.90;;;;;;4992375;28;20085;-68
2022/03/25 08:03:18;;;;;;;11.20;6.97;;;10.80;99.90;;;;;;4995671;28;20049;-68
2022/03/25 08:05:45;;;;;;;12.25;6.90;;;11.90;99.90;;;;;;4996591;28;20037;-68
2022/03/25 08:08:11;;;;;;;10.52;7.30;;;11.80;99.90;;;;;;4995264;28;20517;-68
2022/03/25 08:10:41;;;;;;;10.07;7.00;;;12.30;99.90;;;;;;4995223;28;20034;-68
2022/03/25 08:13:07;;;;;;;8.88;6.82;;;12.00;99.90;;;;;;4994183;28;20022;-68
2022/03/25 08:15:34;;;;;;;7.55;6.60;;;12.70;99.90;;;;;;4992056;28;20030;-68
2022/03/25 08:18:10;;;;;;;12.18;7.43;;;12.40;99.70;;;;;;4997659;28;20026;-68
2022/03/25 08:20:39;;;;;;;10.52;6.85;;;13.10;98.80;;;;;;4993961;28;20064;-69
2022/03/25 08:23:06;;;;;;;9.30;6.85;;;15.90;94.50;;;;;;4993648;28;20034;-68
2022/03/25 08:28:18;;;;;;;7.78;6.82;;;17.20;91.60;;;;;;4995612;28;20091;-68
2022/03/25 08:30:44;;;;;;;8.95;6.82;;;16.80;91.40;;;;;;4991557;28;20045;-68
2022/03/25 08:33:11;;;;;;;9.48;6.70;;;17.90;89.50;;;;;;4995994;28;20018;-68
2022/03/25 08:35:38;;;;;;;7.55;6.70;;;18.40;90.70;;;;;;4996133;28;20108;-69
2022/03/25 08:38:04;;;;;;;10.98;6.78;;;18.60;87.70;;;;;;4996239;28;20041;-69
2022/03/25 08:40:34;;;;;;;8.38;7.05;;;18.10;89.20;;;;;;4995133;28;20080;-68
2022/03/25 08:43:01;;;;;;;8.02;7.18;;;19.10;87.20;;;;;;4992031;28;20066;-68
2022/03/25 08:45:28;;;;;;;12.73;7.05;;;17.50;90.20;;;;;;4992798;28;20026;-68
2022/03/25 08:47:54;;;;;;;7.10;6.40;;;19.30;88.60;;;;;;4996861;28;20025;-68
2022/03/25 08:50:22;;;;;;;7.78;6.75;;;19.00;87.60;;;;;;4995181;28;20031;-68
2022/03/25 08:52:50;;;;;;;9.30;7.18;;;16.10;91.90;;;;;;4994873;28;20487;-68
2022/03/25 08:55:18;;;;;;;9.15;6.85;;;16.40;92.60;;;;;;4994909;28;20022;-68
2022/03/25 08:57:46;;;;;;;7.45;6.50;;;16.60;92.40;;;;;;4991198;28;20546;-69
2022/03/25 09:00:14;;;;;;;8.85;6.70;;;18.30;90.60;;;;;;4995843;28;20034;-69
2022/03/25 09:02:43;;;;;;;7.70;6.90;;;18.90;90.40;;;;;;4994304;28;20033;-68
2022/03/25 09:05:09;;;;;;;11.23;6.82;;;19.30;89.30;;;;;;4994560;28;20514;-69
2022/03/25 09:07:37;;;;;;;7.88;6.70;;;20.00;88.40;;;;;;4993439;28;20026;-69
2022/03/25 09:10:07;;;;;;;7.97;6.65;;;17.40;91.40;;;;;;4993784;28;20040;-69
2022/03/25 09:12:33;;;;;;;10.55;7.20;;;16.80;92.40;;;;;;4990861;28;20046;-68
2022/03/25 09:15:00;;;;;;;8.13;7.05;;;16.00;93.70;;;;;;4995814;28;20050;-68
2022/03/25 09:17:25;;;;;;;9.70;7.13;;;16.50;93.70;;;;;;4994286;28;20101;-67
2022/03/25 09:19:52;;;;;;;6.90;6.30;;;17.30;93.20;;;;;;4994904;28;20472;-67
2022/03/25 09:22:18;;;;;;;8.68;7.38;;;17.30;92.80;;;;;;4993363;28;20105;-68
2022/03/25 09:24:44;;;;;;;7.47;6.78;;;15.10;95.40;;;;;;4990681;28;20019;-68
2022/03/25 09:27:10;;;;;;;8.43;7.18;;;15.60;94.90;;;;;;4995835;28;20057;-67
2022/03/25 09:29:36;;;;;;;9.88;7.18;;;15.70;95.10;;;;;;4995436;28;20118;-67
2022/03/25 09:32:02;;;;;;;9.63;7.10;;;15.10;96.10;;;;;;4994077;28;20125;-67
2022/03/25 09:37:12;;;;;;;11.65;7.28;;;14.60;97.20;;;;;;4994495;28;20037;-67
2022/03/25 09:39:39;;;;;;;8.35;6.50;;;14.90;97.50;;;;;;4974225;28;20442;-67
2022/03/25 09:42:05;;;;;;;9.68;7.07;;;16.70;95.90;;;;;;4996261;28;20459;-67
2022/03/25 09:44:32;;;;;;;8.70;6.72;;;17.70;94.50;;;;;;4993063;28;20456;-67
2022/03/25 09:46:58;;;;;;;8.32;6.82;;;17.20;94.50;;;;;;4993880;28;20069;-68
2022/03/25 09:49:24;;;;;;;7.07;6.38;;;15.80;95.80;;;;;;4994418;28;20026;-67
2022/03/25 09:51:50;;;;;;;7.43;6.68;;;15.70;96.40;;;;;;4990241;28;20039;-69
2022/03/25 09:54:17;;;;;;;7.20;6.38;;;15.40;96.60;;;;;;4994446;28;20372;-67
2022/03/25 09:56:43;;;;;;;7.97;6.90;;;15.50;96.80;;;;;;4995212;28;20069;-68
2022/03/25 09:59:09;;;;;;;8.68;7.82;;;15.90;96.50;;;;;;4992934;28;20029;-67
2022/03/25 10:01:35;;;;;;;7.28;6.57;;;15.00;97.40;;;;;;4992999;28;20035;-67
2022/03/25 10:04:02;;;;;;;8.82;7.57;;;14.60;97.90;;;;;;4992708;28;20507;-67
2022/03/25 10:06:28;;;;;;;7.43;6.60;;;14.90;98.10;;;;;;4991313;28;20045;-67
2022/03/25 10:08:59;;;;;;;9.02;6.75;;;15.50;97.60;;;;;;4996281;28;20034;-67
2022/03/25 10:11:24;;;;;;;9.63;6.68;;;15.50;97.40;;;;;;4994195;28;20490;-67
2022/03/25 10:14:18;;;;;;;10.50;6.68;;;15.50;97.90;;;;;;4993971;28;20106;-68
2022/03/25 10:16:51;;;;;;;9.95;6.45;;;17.10;95.50;;;;;;4988946;28;20045;-68
2022/03/25 10:19:23;;;;;;;7.47;6.75;;;16.20;96.90;;;;;;4992800;28;20030;-68
2022/03/25 10:21:57;;;;;;;8.13;6.30;;;15.30;97.60;;;;;;4991432;28;20022;-68
2022/03/25 10:24:35;;;;;;;8.45;6.45;;;15.30;97.90;;;;;;4992462;28;20038;-68
2022/03/25 10:27:05;;;;;;;8.20;6.45;;;16.00;97.50;;;;;;4995586;28;20030;-68
2022/03/25 10:29:31;;;;;;;7.97;6.43;;;16.50;96.70;;;;;;4993789;28;20105;-68
2022/03/25 10:32:11;;;;;;;8.55;6.05;;;17.40;95.70;;;;;;4993016;28;20527;-67
2022/03/25 10:34:39;;;;;;;9.80;6.68;;;17.60;95.60;;;;;;4994034;28;20033;-68
2022/03/25 10:37:11;;;;;;;8.00;6.55;;;17.50;95.30;;;;;;4995359;28;20026;-68
2022/03/25 10:39:38;;;;;;;6.95;6.25;;;17.10;95.80;;;;;;4992922;28;20060;-67
2022/03/25 10:42:06;;;;;;;8.30;6.38;;;16.40;96.70;;;;;;4999227;28;20073;-67
2022/03/25 10:44:41;;;;;;;8.52;6.32;;;16.00;96.80;;;;;;4997206;28;20018;-67
2022/03/25 10:47:16;;;;;;;7.15;6.30;;;15.80;97.40;;;;;;4997371;28;20511;-67
2022/03/25 10:49:46;;;;;;;8.88;7.00;;;16.20;96.70;;;;;;4997882;28;20479;-68
2022/03/25 10:52:34;;;;;;;7.13;6.10;;;16.10;96.50;;;;;;4997346;28;20575;-68
2022/03/25 10:55:20;;;;;;;9.45;6.03;;;16.50;96.10;;;;;;4983061;28;20026;-68
2022/03/25 10:57:54;;;;;;;9.02;6.50;;;16.10;96.20;;;;;;4977920;28;20226;-67
2022/03/25 11:00:21;;;;;;;8.32;6.57;;;16.10;96.90;;;;;;4996148;28;20037;-67
2022/03/25 11:02:47;;;;;;;8.60;6.38;;;15.60;97.10;;;;;;4998758;28;20034;-69
2022/03/25 11:05:15;;;;;;;9.20;6.43;;;15.90;96.50;;;;;;4997249;28;20483;-67
2022/03/25 11:07:43;;;;;;;9.27;6.70;;;15.80;97.20;;;;;;4997189;28;20033;-67
2022/03/25 11:10:17;;;;;;;8.85;6.30;;;15.80;96.80;;;;;;4995299;28;20022;-68
2022/03/25 11:12:48;;;;;;;7.15;6.35;;;15.60;97.40;;;;;;4977977;28;20035;-68
2022/03/25 11:15:16;;;;;;;9.57;6.63;;;16.20;96.70;;;;;;4997686;28;20027;-68
2022/03/25 11:17:43;;;;;;;9.38;6.50;;;16.00;96.80;;;;;;4997940;28;20030;-68
2022/03/25 11:20:11;;;;;;;7.68;6.75;;;15.90;96.70;;;;;;4995634;28;20052;-68
2022/03/25 11:23:09;;;;;;;7.57;6.72;;;15.60;97.00;;;;;;4995524;28;20030;-69
2022/03/25 11:25:44;;;;;;;9.27;6.57;;;15.40;96.90;;;;;;4993067;28;20117;-68
2022/03/25 11:28:17;;;;;;;8.48;6.93;;;15.40;97.50;;;;;;4996380;28;20041;-68
2022/03/25 11:30:43;;;;;;;8.60;6.47;;;15.60;97.10;;;;;;4976367;28;20027;-67
2022/03/25 11:33:10;;;;;;;7.20;6.07;;;15.60;96.90;;;;;;4998586;28;20069;-69
2022/03/25 11:35:41;;;;;;;10.35;6.57;;;15.70;97.20;;;;;;4995883;28;20395;-67
2022/03/25 11:38:18;;;;;;;8.48;6.40;;;16.00;96.80;;;;;;4995210;28;20022;-68
2022/03/25 11:40:52;;;;;;;10.30;7.00;;;16.20;97.40;;;;;;4996472;28;20037;-67
2022/03/25 11:43:28;;;;;;;7.22;6.13;;;15.90;97.00;;;;;;4995989;28;20042;-67
2022/03/25 11:45:59;;;;;;;10.85;6.97;;;15.80;97.10;;;;;;4993793;28;20384;-67
2022/03/25 11:48:25;;;;;;;11.45;6.70;;;15.70;97.00;;;;;;4994784;28;20037;-67
2022/03/25 11:50:52;;;;;;;8.88;6.43;;;15.60;97.40;;;;;;4996434;28;20027;-68
2022/03/25 11:53:22;;;;;;;9.32;6.80;;;15.60;96.90;;;;;;4996186;28;20026;-67
2022/03/25 11:55:59;;;;;;;8.02;6.30;;;15.80;97.00;;;;;;4996253;28;20117;-68
2022/03/25 11:58:25;;;;;;;8.93;6.30;;;16.10;97.10;;;;;;4994596;28;20414;-67
2022/03/25 12:00:56;;;;;;;8.77;7.53;;;16.00;97.20;;;;;;4993247;28;20026;-67
2022/03/25 12:03:42;;;;;;;9.00;7.47;;;16.10;97.40;;;;;;4994066;28;20105;-67
2022/03/25 12:06:09;;;;;;;8.40;6.45;;;16.20;96.80;;;;;;5005627;28;20109;-68
2022/03/25 12:08:39;;;;;;;8.63;6.28;;;15.80;97.00;;;;;;4996361;28;20034;-67
2022/03/25 12:11:10;;;;;;;8.07;6.60;;;15.70;96.60;;;;;;4995798;28;20061;-67
2022/03/25 12:13:54;;;;;;;9.55;7.40;;;15.60;96.90;;;;;;4995980;28;20107;-67
2022/03/25 12:16:44;;;;;;;10.35;6.43;;;15.80;96.80;;;;;;4994810;28;20034;-67
2022/03/25 12:19:39;;;;;;;12.65;9.50;;;15.90;97.10;;;;;;4995838;28;20494;-67
2022/03/25 12:22:17;;;;;;;9.10;6.55;;;16.30;95.80;;;;;;4982882;28;20475;-68
2022/03/25 12:24:43;;;;;;;7.70;6.22;;;16.10;96.10;;;;;;4976739;28;20062;-67
2022/03/25 12:27:09;;;;;;;7.82;6.68;;;15.80;96.20;;;;;;4997329;28;20033;-67
2022/03/25 12:29:40;;;;;;;9.63;6.20;;;15.60;96.40;;;;;;4993033;28;20444;-67
2022/03/25 12:32:08;;;;;;;10.98;8.05;;;15.60;96.50;;;;;;4995527;28;20039;-68
2022/03/25 12:35:00;;;;;;;8.25;6.93;;;15.40;96.40;;;;;;4995896;28;20034;-68
2022/03/25 12:37:37;;;;;;;9.15;6.72;;;15.70;96.40;;;;;;4994051;28;20030;-67
2022/03/25 12:40:30;;;;;;;7.95;6.28;;;15.70;96.70;;;;;;4993548;28;20065;-68
2022/03/25 12:42:59;;;;;;;7.60;6.47;;;16.00;95.90;;;;;;4979154;28;20049;-67
2022/03/25 12:45:37;;;;;;;8.82;6.60;;;15.90;96.30;;;;;;4992959;28;20062;-68
2022/03/25 12:48:17;;;;;;;8.20;6.80;;;15.90;96.20;;;;;;4996724;28;20034;-68
2022/03/25 12:50:50;;;;;;;12.18;6.80;;;16.00;96.10;;;;;;4994933;28;20046;-68
2022/03/25 12:53:16;;;;;;;8.60;7.40;;;16.10;96.00;;;;;;4995208;28;20058;-69